createdAt,value
2023-04-28T00:01:12.671Z,13.43
2023-04-28T00:03:39.459Z,10.77
2023-04-28T00:06:06.127Z,7.10
2023-04-28T00:08:32.907Z,10.77
2023-04-28T00:11:00.037Z,9.00
2023-04-28T00:13:26.695Z,6.60
2023-04-28T00:15:53.974Z,9.10
2023-04-28T00:18:21.217Z,8.63
2023-04-28T00:20:47.959Z,12.23
2023-04-28T00:23:15.130Z,8.67
2023-04-28T00:25:41.627Z,11.03
2023-04-28T00:28:08.125Z,13.83
2023-04-28T00:30:34.672Z,9.50
2023-04-28T00:33:03.589Z,10.17
2023-04-28T00:35:30.150Z,6.97
2023-04-28T00:37:56.637Z,10.73
2023-04-28T00:40:23.210Z,7.03
2023-04-28T00:42:49.729Z,11.50
2023-04-28T00:45:16.250Z,8.90
2023-04-28T00:47:42.871Z,7.33
2023-04-28T00:50:09.936Z,7.47
2023-04-28T00:52:38.702Z,10.50
2023-04-28T00:55:07.166Z,10.67
2023-04-28T00:57:34.870Z,12.50
2023-04-28T01:00:02.004Z,8.40
2023-04-28T01:02:29.971Z,13.33
2023-04-28T01:04:58.323Z,10.20
2023-04-28T01:07:24.831Z,7.90
2023-04-28T01:09:51.343Z,9.93
2023-04-28T01:12:17.840Z,8.43
2023-04-28T01:14:44.505Z,12.00
2023-04-28T01:17:11.814Z,7.60
2023-04-28T01:19:38.398Z,7.67
2023-04-28T01:22:09.935Z,9.33
2023-04-28T01:24:36.440Z,8.33
2023-04-28T01:27:02.985Z,17.20
2023-04-28T01:29:29.676Z,9.13
2023-04-28T01:31:56.307Z,9.37
2023-04-28T01:34:22.893Z,8.03
2023-04-28T01:36:49.392Z,7.00
2023-04-28T01:39:16.452Z,11.03
2023-04-28T01:41:43.034Z,10.00
2023-04-28T01:44:11.101Z,10.90
2023-04-28T01:46:37.598Z,9.33
2023-04-28T01:49:04.232Z,9.53
2023-04-28T01:51:32.013Z,7.73
2023-04-28T01:53:58.504Z,7.73
2023-04-28T01:56:25.175Z,7.43
2023-04-28T01:58:51.683Z,8.90
2023-04-28T02:01:18.198Z,10.53
2023-04-28T02:03:45.109Z,9.10
2023-04-28T02:06:11.718Z,10.30
2023-04-28T02:08:38.193Z,10.90
2023-04-28T02:11:04.726Z,8.93
2023-04-28T02:13:31.240Z,10.20
2023-04-28T02:16:01.666Z,9.63
2023-04-28T02:18:28.543Z,10.57
2023-04-28T02:20:55.059Z,12.63
2023-04-28T02:23:21.548Z,9.53
2023-04-28T02:25:48.048Z,9.17
2023-04-28T02:28:14.548Z,9.87
2023-04-28T02:30:41.044Z,8.37
2023-04-28T02:33:07.549Z,9.57
2023-04-28T02:35:34.064Z,7.43
2023-04-28T02:38:00.547Z,8.87
2023-04-28T02:40:27.062Z,8.67
2023-04-28T02:42:53.520Z,7.13
2023-04-28T02:45:20.440Z,10.17
2023-04-28T02:47:46.910Z,7.63
2023-04-28T02:50:13.422Z,8.77
2023-04-28T02:52:39.899Z,7.47
2023-04-28T02:55:07.130Z,10.83
2023-04-28T02:57:33.638Z,9.23
2023-04-28T03:00:00.162Z,9.13
2023-04-28T03:02:26.708Z,7.83
2023-04-28T03:04:53.282Z,13.63
2023-04-28T03:07:19.752Z,9.03
2023-04-28T03:09:46.254Z,7.80
2023-04-28T03:12:12.789Z,8.63
2023-04-28T03:14:39.293Z,7.70
2023-04-28T03:17:05.771Z,12.53
2023-04-28T03:19:32.613Z,9.77
2023-04-28T03:21:59.117Z,11.13
2023-04-28T03:24:25.590Z,9.33
2023-04-28T03:26:52.085Z,7.20
2023-04-28T03:29:18.602Z,10.90
2023-04-28T03:31:45.144Z,10.07
2023-04-28T03:34:11.625Z,8.33
2023-04-28T03:36:38.149Z,8.53
2023-04-28T03:39:04.609Z,11.00
2023-04-28T03:41:31.112Z,10.47
2023-04-28T03:43:57.571Z,11.03
2023-04-28T03:46:24.100Z,9.83
2023-04-28T03:48:50.673Z,7.50
2023-04-28T03:51:17.182Z,7.40
2023-04-28T03:53:43.904Z,7.73
2023-04-28T03:56:10.653Z,9.67
2023-04-28T03:58:37.169Z,16.50
2023-04-28T04:01:04.469Z,9.57
2023-04-28T04:03:31.083Z,8.50
2023-04-28T04:05:58.248Z,7.93
2023-04-28T04:08:25.187Z,9.70
2023-04-28T04:10:52.275Z,9.03
2023-04-28T04:13:18.783Z,10.33
2023-04-28T04:15:45.327Z,7.80
2023-04-28T04:18:11.860Z,16.93
2023-04-28T04:20:38.860Z,9.87
2023-04-28T04:23:05.351Z,6.97
2023-04-28T04:25:32.010Z,8.30
2023-04-28T04:27:59.410Z,7.60
2023-04-28T04:30:26.084Z,8.70
2023-04-28T04:32:52.613Z,7.63
2023-04-28T04:35:19.137Z,7.53
2023-04-28T04:37:45.637Z,14.13
2023-04-28T04:40:12.412Z,8.30
2023-04-28T04:42:39.000Z,7.83
2023-04-28T04:45:07.063Z,7.10
2023-04-28T04:47:33.636Z,8.40
2023-04-28T04:50:00.231Z,9.60
2023-04-28T04:52:26.732Z,7.97
2023-04-28T04:54:53.519Z,8.53
2023-04-28T04:57:20.383Z,10.57
2023-04-28T04:59:46.865Z,13.00
2023-04-28T05:02:13.437Z,11.50
2023-04-28T05:04:40.068Z,13.07
2023-04-28T05:07:06.638Z,12.47
2023-04-28T05:09:33.259Z,9.37
2023-04-28T05:11:59.825Z,10.90
2023-04-28T05:14:26.339Z,8.43
2023-04-28T05:16:53.069Z,8.43
2023-04-28T05:19:19.650Z,9.13
2023-04-28T05:21:47.268Z,11.90
2023-04-28T05:24:14.758Z,7.17
2023-04-28T05:26:41.510Z,8.87
2023-04-28T05:29:08.198Z,13.47
2023-04-28T05:31:34.714Z,8.37
2023-04-28T05:34:01.214Z,8.83
2023-04-28T05:36:27.846Z,12.83
2023-04-28T05:38:54.434Z,9.27
2023-04-28T05:41:20.929Z,9.57
2023-04-28T05:43:50.259Z,9.77
2023-04-28T05:46:29.292Z,10.77
2023-04-28T05:48:57.459Z,17.60
2023-04-28T05:51:23.958Z,8.77
2023-04-28T05:53:50.476Z,11.30
2023-04-28T05:56:17.142Z,9.13
2023-04-28T05:58:44.268Z,9.80
2023-04-28T06:01:11.203Z,9.93
2023-04-28T06:03:37.867Z,17.03
2023-04-28T06:06:07.782Z,13.53
2023-04-28T06:08:37.173Z,28.83
2023-04-28T06:11:04.014Z,17.63
2023-04-28T06:13:30.563Z,15.47
2023-04-28T06:15:57.099Z,18.33
2023-04-28T06:18:23.891Z,21.30
2023-04-28T06:20:50.601Z,25.47
2023-04-28T06:23:17.099Z,21.23
2023-04-28T06:25:43.676Z,16.23
2023-04-28T06:28:11.652Z,24.87
2023-04-28T06:30:38.163Z,31.70
2023-04-28T06:33:04.665Z,18.43
2023-04-28T06:35:31.304Z,18.63
2023-04-28T06:37:57.868Z,18.80
2023-04-28T06:40:24.616Z,20.63
2023-04-28T06:42:51.184Z,18.40
2023-04-28T06:45:17.803Z,30.00
2023-04-28T06:47:44.451Z,23.47
2023-04-28T06:50:11.379Z,21.90
2023-04-28T06:52:40.454Z,16.60
2023-04-28T06:55:10.006Z,20.27
2023-04-28T06:57:37.352Z,19.57
2023-04-28T07:00:04.941Z,20.63
2023-04-28T07:02:31.616Z,19.53
2023-04-28T07:04:58.266Z,18.27
2023-04-28T07:07:25.690Z,15.50
2023-04-28T07:09:52.651Z,18.20
2023-04-28T07:12:19.339Z,14.60
2023-04-28T07:14:45.880Z,17.87
2023-04-28T07:17:12.387Z,32.53
2023-04-28T07:19:38.874Z,19.00
2023-04-28T07:22:05.422Z,13.97
2023-04-28T07:24:31.939Z,12.93
2023-04-28T07:26:58.425Z,18.17
2023-04-28T07:29:28.102Z,14.33
2023-04-28T07:31:54.749Z,15.77
2023-04-28T07:34:21.548Z,13.10
2023-04-28T07:36:48.069Z,15.87
2023-04-28T07:39:15.258Z,19.43
2023-04-28T07:41:41.756Z,16.63
2023-04-28T07:44:08.484Z,17.13
2023-04-28T07:46:35.437Z,14.30
2023-04-28T07:49:02.385Z,20.77
2023-04-28T07:51:28.987Z,11.33
2023-04-28T07:53:55.949Z,20.53
2023-04-28T07:56:23.701Z,14.53
2023-04-28T07:58:50.717Z,17.27
2023-04-28T08:01:17.712Z,21.00
2023-04-28T08:03:44.557Z,16.93
2023-04-28T08:06:12.124Z,16.27
2023-04-28T08:08:38.725Z,19.23
2023-04-28T08:11:05.382Z,19.27
2023-04-28T08:13:32.820Z,14.20
2023-04-28T08:16:02.103Z,18.03
2023-04-28T08:18:28.943Z,11.57
2023-04-28T08:20:55.536Z,11.60
2023-04-28T08:23:22.041Z,12.47
2023-04-28T08:25:49.894Z,14.77
2023-04-28T08:28:16.389Z,17.60
2023-04-28T08:30:42.883Z,12.23
2023-04-28T08:33:09.409Z,15.07
2023-04-28T08:35:36.021Z,17.87
2023-04-28T08:38:02.550Z,9.00
2023-04-28T08:40:30.728Z,13.47
2023-04-28T08:42:57.728Z,15.23
2023-04-28T08:45:25.852Z,11.47
2023-04-28T08:47:59.034Z,10.83
2023-04-28T08:50:30.076Z,12.47
2023-04-28T08:52:56.824Z,15.37
2023-04-28T08:55:25.213Z,12.20
2023-04-28T08:57:52.356Z,12.27
2023-04-28T09:00:18.931Z,17.50
2023-04-28T09:02:45.546Z,12.50
2023-04-28T09:05:13.984Z,16.27
2023-04-28T09:07:41.200Z,17.57
2023-04-28T09:10:23.079Z,21.17
2023-04-28T09:12:55.143Z,18.73
2023-04-28T09:15:42.080Z,18.33
2023-04-28T09:18:13.904Z,21.30
2023-04-28T09:20:40.430Z,19.50
2023-04-28T09:23:21.622Z,32.47
2023-04-28T09:26:07.393Z,19.37
2023-04-28T09:28:35.719Z,18.93
2023-04-28T09:31:03.192Z,21.70
2023-04-28T09:33:30.179Z,15.57
2023-04-28T09:35:56.684Z,13.37
2023-04-28T09:38:23.426Z,12.00
2023-04-28T09:41:01.477Z,12.43
2023-04-28T09:43:35.660Z,13.17
2023-04-28T09:46:05.200Z,15.53
2023-04-28T09:48:37.535Z,19.03
2023-04-28T09:51:07.083Z,12.57
2023-04-28T09:53:35.020Z,11.57
2023-04-28T09:56:04.529Z,10.80
2023-04-28T09:58:32.271Z,15.93
2023-04-28T10:01:01.066Z,12.07
2023-04-28T10:03:31.150Z,13.47
2023-04-28T10:05:58.875Z,10.77
2023-04-28T10:08:27.289Z,14.80
2023-04-28T10:10:56.021Z,13.80
2023-04-28T10:13:23.943Z,11.83
2023-04-28T10:15:53.961Z,17.47
2023-04-28T10:18:25.119Z,15.43
2023-04-28T10:21:02.963Z,12.67
2023-04-28T10:24:00.009Z,13.93
2023-04-28T10:29:06.190Z,13.75
2023-04-28T10:31:34.202Z,13.67
2023-04-28T10:34:24.730Z,11.10
2023-04-28T10:36:54.277Z,12.60
2023-04-28T10:39:20.820Z,11.60
2023-04-28T10:41:48.256Z,13.47
2023-04-28T10:47:18.209Z,16.73
2023-04-28T10:51:37.433Z,13.07
2023-04-28T10:54:10.196Z,12.50
2023-04-28T10:56:36.734Z,16.67
2023-04-28T10:59:26.528Z,14.07
2023-04-28T11:01:53.105Z,12.98
2023-04-28T11:04:19.833Z,15.87
2023-04-28T11:07:08.060Z,9.45
2023-04-28T11:09:55.345Z,8.03
2023-04-28T11:12:21.930Z,9.57
2023-04-28T11:14:48.438Z,12.85
2023-04-28T11:17:17.957Z,9.43
2023-04-28T11:19:47.882Z,10.13
2023-04-28T11:22:21.051Z,11.75
2023-04-28T11:25:04.648Z,11.57
2023-04-28T11:27:33.055Z,16.80
2023-04-28T11:30:00.894Z,10.02
2023-04-28T11:32:35.899Z,11.75
2023-04-28T11:35:08.860Z,12.32
2023-04-28T11:37:35.396Z,8.85
2023-04-28T11:40:12.211Z,11.25
2023-04-28T11:42:48.120Z,10.52
2023-04-28T11:45:14.638Z,9.68
2023-04-28T11:47:41.300Z,14.77
2023-04-28T11:50:08.077Z,11.90
2023-04-28T11:52:34.781Z,9.88
2023-04-28T11:55:01.547Z,8.15
2023-04-28T11:57:28.353Z,10.95
2023-04-28T12:00:20.990Z,11.57
2023-04-28T12:02:47.977Z,14.50
2023-04-28T12:05:14.709Z,15.48
2023-04-28T12:07:43.835Z,16.77
2023-04-28T12:10:19.052Z,12.32
2023-04-28T12:12:51.832Z,10.48
2023-04-28T12:15:22.252Z,10.50
2023-04-28T12:17:49.860Z,12.32
2023-04-28T12:20:37.881Z,12.80
2023-04-28T12:23:05.431Z,15.55
2023-04-28T12:25:33.364Z,14.23
2023-04-28T12:28:07.013Z,11.52
2023-04-28T12:30:39.508Z,13.77
2023-04-28T12:33:06.172Z,19.00
2023-04-28T12:35:32.900Z,9.80
2023-04-28T12:37:59.518Z,17.42
2023-04-28T12:40:26.335Z,16.62
2023-04-28T12:42:53.058Z,8.23
2023-04-28T12:45:19.560Z,11.65
2023-04-28T12:47:46.579Z,12.68
2023-04-28T12:50:13.105Z,13.60
2023-04-28T12:52:39.574Z,10.75
2023-04-28T12:55:07.450Z,8.40
2023-04-28T12:57:37.388Z,12.82
2023-04-28T13:00:07.991Z,13.45
2023-04-28T13:02:34.729Z,13.52
2023-04-28T13:05:02.161Z,10.45
2023-04-28T13:07:29.457Z,10.70
2023-04-28T13:09:56.029Z,13.03
2023-04-28T13:12:23.509Z,12.00
2023-04-28T13:14:50.353Z,10.80
2023-04-28T13:17:16.938Z,14.40
2023-04-28T13:19:43.593Z,10.95
2023-04-28T13:22:10.299Z,13.83
2023-04-28T13:24:36.775Z,10.27
2023-04-28T13:27:03.387Z,19.05
2023-04-28T13:29:29.926Z,13.60
2023-04-28T13:31:56.468Z,10.65
2023-04-28T13:34:22.991Z,13.10
2023-04-28T13:36:50.294Z,12.35
2023-04-28T13:39:19.387Z,10.10
2023-04-28T13:41:45.868Z,13.23
2023-04-28T13:44:12.395Z,10.73
2023-04-28T13:46:38.904Z,10.63
2023-04-28T13:49:05.470Z,10.02
2023-04-28T13:51:32.235Z,11.47
2023-04-28T13:53:58.806Z,12.30
2023-04-28T13:56:25.698Z,10.17
2023-04-28T13:58:52.728Z,12.07
2023-04-28T14:01:20.005Z,11.23
2023-04-28T14:03:46.674Z,10.00
2023-04-28T14:06:13.317Z,10.47
2023-04-28T14:08:39.815Z,16.40
2023-04-28T14:11:06.333Z,13.77
2023-04-28T14:13:32.815Z,11.40
2023-04-28T14:15:59.950Z,10.43
2023-04-28T14:18:27.644Z,20.17
2023-04-28T14:20:55.116Z,12.37
2023-04-28T14:23:22.100Z,14.68
2023-04-28T14:25:49.401Z,15.93
2023-04-28T14:28:15.890Z,11.82
2023-04-28T14:30:42.379Z,11.83
2023-04-28T14:33:08.900Z,16.63
2023-04-28T14:35:35.443Z,15.20
2023-04-28T14:38:03.265Z,13.07
2023-04-28T14:40:29.765Z,18.77
2023-04-28T14:42:56.276Z,19.80
2023-04-28T14:45:22.867Z,13.60
2023-04-28T14:47:49.582Z,17.00
2023-04-28T14:50:16.120Z,15.80
2023-04-28T14:52:42.671Z,14.77
2023-04-28T14:55:09.675Z,13.10
2023-04-28T14:57:37.010Z,20.07
2023-04-28T15:00:06.425Z,13.93
2023-04-28T15:02:33.609Z,18.87
2023-04-28T15:05:00.356Z,15.20
2023-04-28T15:07:33.026Z,12.83
2023-04-28T15:09:59.780Z,12.03
2023-04-28T15:12:29.324Z,14.65
2023-04-28T15:14:56.237Z,12.20
2023-04-28T15:17:22.734Z,12.97
2023-04-28T15:19:49.249Z,14.83
2023-04-28T15:22:16.224Z,13.33
2023-04-28T15:24:42.749Z,13.95
2023-04-28T15:27:09.258Z,21.43
2023-04-28T15:29:35.746Z,13.20
2023-04-28T15:32:02.267Z,18.33
2023-04-28T15:34:28.830Z,18.90
2023-04-28T15:36:55.917Z,16.23
2023-04-28T15:39:24.268Z,15.67
2023-04-28T15:41:51.907Z,17.53
2023-04-28T15:44:18.701Z,20.30
2023-04-28T15:46:45.214Z,16.00
2023-04-28T15:49:11.681Z,16.23
2023-04-28T15:51:38.191Z,20.17
2023-04-28T15:54:04.858Z,16.23
2023-04-28T15:56:31.449Z,18.17
2023-04-28T15:58:58.075Z,15.43
2023-04-28T16:01:24.792Z,15.90
2023-04-28T16:03:51.602Z,17.50
2023-04-28T16:06:18.307Z,17.63
2023-04-28T16:08:44.809Z,32.83
2023-04-28T16:11:16.952Z,21.43
2023-04-28T16:13:44.437Z,13.77
2023-04-28T16:16:12.163Z,21.77
2023-04-28T16:18:38.959Z,17.77
2023-04-28T16:21:05.656Z,20.80
2023-04-28T16:23:32.209Z,18.57
2023-04-28T16:25:58.726Z,17.03
2023-04-28T16:28:26.058Z,16.00
2023-04-28T16:30:52.530Z,39.33
2023-04-28T16:33:19.039Z,19.13
2023-04-28T16:35:54.910Z,19.90
2023-04-28T16:38:21.516Z,19.40
2023-04-28T16:40:48.591Z,26.60
2023-04-28T16:43:15.192Z,59.43
2023-04-28T16:45:41.813Z,26.37
2023-04-28T16:48:08.373Z,58.00
2023-04-28T16:50:35.420Z,29.53
2023-04-28T16:53:01.970Z,23.93
2023-04-28T16:55:29.321Z,20.60
2023-04-28T16:57:55.871Z,17.63
2023-04-28T17:00:22.545Z,17.27
2023-04-28T17:02:49.153Z,25.03
2023-04-28T17:05:15.878Z,18.33
2023-04-28T17:07:42.981Z,16.53
2023-04-28T17:10:10.279Z,21.70
2023-04-28T17:12:36.811Z,20.93
2023-04-28T17:15:03.821Z,17.63
2023-04-28T17:17:30.396Z,15.17
2023-04-28T17:19:59.086Z,17.20
2023-04-28T17:22:25.579Z,16.37
2023-04-28T17:24:52.076Z,17.50
2023-04-28T17:27:18.576Z,16.20
2023-04-28T17:29:45.124Z,16.10
2023-04-28T17:32:11.730Z,16.53
2023-04-28T17:34:38.290Z,18.07
2023-04-28T17:37:05.073Z,17.83
2023-04-28T17:39:31.706Z,16.33
2023-04-28T17:41:59.093Z,18.10
2023-04-28T17:44:25.643Z,16.93
2023-04-28T17:46:52.226Z,14.43
2023-04-28T17:49:18.763Z,19.03
2023-04-28T17:51:45.254Z,16.03
2023-04-28T17:54:11.737Z,15.40
2023-04-28T17:56:38.690Z,17.83
2023-04-28T17:59:05.608Z,19.47
2023-04-28T18:01:35.338Z,17.80
2023-04-28T18:04:01.894Z,13.97
2023-04-28T18:06:29.117Z,14.77
2023-04-28T18:08:55.630Z,22.50
2023-04-28T18:11:22.637Z,18.43
2023-04-28T18:13:49.115Z,13.97
2023-04-28T18:16:15.669Z,14.37
2023-04-28T18:18:42.210Z,15.67
2023-04-28T18:21:09.026Z,15.20
2023-04-28T18:23:35.570Z,14.03
2023-04-28T18:26:02.144Z,13.93
2023-04-28T18:28:28.641Z,16.17
2023-04-28T18:30:55.097Z,20.47
2023-04-28T18:33:24.961Z,18.57
2023-04-28T18:36:06.389Z,20.60
2023-04-28T18:38:35.547Z,19.23
2023-04-28T18:41:23.012Z,13.40
2023-04-28T18:43:49.546Z,16.43
2023-04-28T18:46:16.063Z,14.73
2023-04-28T18:48:42.899Z,13.27
2023-04-28T18:51:09.443Z,15.73
2023-04-28T18:53:36.342Z,15.93
2023-04-28T18:56:03.051Z,18.53
2023-04-28T18:58:29.562Z,18.90
2023-04-28T19:00:56.132Z,23.17
2023-04-28T19:03:23.711Z,16.63
2023-04-28T19:05:50.304Z,19.40
2023-04-28T19:08:16.772Z,20.73
2023-04-28T19:10:43.262Z,23.63
2023-04-28T19:13:10.201Z,21.90
2023-04-28T19:15:36.718Z,22.33
2023-04-28T19:18:04.493Z,25.63
2023-04-28T19:20:31.071Z,22.23
2023-04-28T19:23:00.683Z,28.40
2023-04-28T19:25:29.799Z,22.33
2023-04-28T19:27:56.324Z,24.33
2023-04-28T19:30:22.829Z,24.57
2023-04-28T19:32:49.365Z,25.17
2023-04-28T19:35:15.829Z,33.03
2023-04-28T19:37:42.498Z,27.57
2023-04-28T19:40:10.278Z,20.17
2023-04-28T19:42:36.890Z,27.37
2023-04-28T19:45:04.176Z,24.00
2023-04-28T19:47:33.217Z,18.67
2023-04-28T19:50:00.269Z,15.67
2023-04-28T19:52:27.197Z,19.03
2023-04-28T19:54:54.185Z,19.77
2023-04-28T19:57:20.895Z,25.23
2023-04-28T19:59:49.003Z,21.67
2023-04-28T20:02:16.551Z,22.77
2023-04-28T20:04:45.236Z,21.17
2023-04-28T20:07:12.443Z,23.10
2023-04-28T20:09:39.147Z,17.17
2023-04-28T20:12:09.030Z,21.37
2023-04-28T20:14:36.430Z,18.73
2023-04-28T20:17:04.758Z,19.60
2023-04-28T20:19:31.457Z,22.77
2023-04-28T20:21:57.923Z,19.90
2023-04-28T20:24:24.431Z,17.87
2023-04-28T20:26:53.320Z,19.30
2023-04-28T20:29:19.834Z,15.43
2023-04-28T20:31:46.419Z,23.37
2023-04-28T20:34:13.640Z,18.50
2023-04-28T20:36:43.260Z,21.50
2023-04-28T20:39:11.434Z,18.53
2023-04-28T20:41:40.010Z,17.97
2023-04-28T20:44:06.802Z,14.53
2023-04-28T20:46:34.632Z,18.67
2023-04-28T20:49:02.281Z,20.67
2023-04-28T20:51:35.327Z,22.57
2023-04-28T20:54:03.223Z,18.73
2023-04-28T20:56:29.839Z,19.20
2023-04-28T20:58:56.316Z,16.53
2023-04-28T21:01:23.066Z,15.30
2023-04-28T21:03:49.861Z,15.03
2023-04-28T21:06:16.948Z,21.53
2023-04-28T21:08:44.309Z,17.00
2023-04-28T21:11:15.424Z,19.37
2023-04-28T21:13:42.778Z,21.23
2023-04-28T21:16:20.659Z,21.07
2023-04-28T21:18:48.428Z,22.67
2023-04-28T21:21:15.042Z,20.83
2023-04-28T21:23:42.001Z,20.67
2023-04-28T21:26:09.463Z,21.33
2023-04-28T21:28:36.433Z,24.47
2023-04-28T21:31:04.126Z,22.17
2023-04-28T21:33:31.100Z,22.27
2023-04-28T21:35:58.074Z,20.03
2023-04-28T21:38:25.252Z,18.67
2023-04-28T21:40:51.918Z,19.37
2023-04-28T21:43:19.204Z,17.27
2023-04-28T21:45:46.034Z,15.50
2023-04-28T21:48:12.633Z,17.47
2023-04-28T21:50:39.192Z,18.33
2023-04-28T21:53:05.684Z,18.80
2023-04-28T21:55:32.191Z,18.40
2023-04-28T21:58:00.342Z,16.90
2023-04-28T22:00:27.300Z,24.87
2023-04-28T22:02:55.542Z,27.77
2023-04-28T22:05:23.995Z,26.30
2023-04-28T22:07:51.067Z,25.17
2023-04-28T22:10:18.544Z,21.60
2023-04-28T22:12:45.071Z,22.93
2023-04-28T22:15:11.644Z,23.23
2023-04-28T22:17:38.139Z,23.97
2023-04-28T22:20:06.069Z,22.57
2023-04-28T22:22:32.574Z,25.73
2023-04-28T22:24:59.423Z,21.63
2023-04-28T22:27:26.321Z,21.23
2023-04-28T22:29:53.004Z,21.27
2023-04-28T22:32:19.616Z,24.50
2023-04-28T22:34:47.430Z,23.07
2023-04-28T22:37:13.907Z,21.50
2023-04-28T22:39:40.380Z,19.40
2023-04-28T22:42:06.898Z,23.30
2023-04-28T22:44:33.405Z,22.13
2023-04-28T22:47:00.180Z,19.93
2023-04-28T22:49:27.951Z,19.33
2023-04-28T22:51:54.770Z,20.03
2023-04-28T22:54:21.256Z,19.97
2023-04-28T22:56:47.724Z,19.17
2023-04-28T22:59:14.238Z,17.70
2023-04-28T23:01:40.800Z,16.50
2023-04-28T23:04:07.636Z,23.33
2023-04-28T23:06:34.419Z,23.90
2023-04-28T23:09:02.835Z,19.33
2023-04-28T23:11:29.504Z,21.60
2023-04-28T23:13:56.025Z,16.73
2023-04-28T23:16:22.532Z,16.17
2023-04-28T23:18:49.214Z,13.10
2023-04-28T23:21:15.699Z,15.10
2023-04-28T23:23:42.185Z,15.03
2023-04-28T23:26:08.701Z,21.07
2023-04-28T23:28:35.161Z,21.20
2023-04-28T23:31:01.656Z,19.33
2023-04-28T23:33:29.047Z,31.67
2023-04-28T23:35:55.525Z,17.13
2023-04-28T23:38:22.028Z,16.27
2023-04-28T23:40:48.557Z,18.77
2023-04-28T23:43:15.055Z,16.93
2023-04-28T23:45:41.838Z,18.20
2023-04-28T23:48:08.363Z,16.67
2023-04-28T23:50:34.837Z,13.00
2023-04-28T23:53:01.405Z,15.87
2023-04-28T23:55:27.878Z,14.03
2023-04-28T23:57:54.391Z,17.60
